Time;durP1;ratioP1;P1;durP2;ratioP2;P2;SDS_P1;SDS_P2;PMS_P1;PMS_P2;Temp;Humidity;BMP_temperature;BMP_pressure;BME280_temperature;BME280_humidity;BME280_pressure;Samples;Min_cycle;Max_cycle;Signal;HPM_P1;HPM_P2
2022/05/11 00:00:44;;;;;;;;;;;16.80;61.60;;;13.22;76.67;95751.34;5072952;28;20040;-51
2022/05/11 00:03:13;;;;;;;5.78;4.90;;;16.80;61.10;;;13.23;76.66;95755.63;5072154;28;19913;-51
2022/05/11 00:05:39;;;;;;;7.30;5.40;;;16.70;61.00;;;13.13;76.90;95745.75;5057348;28;20029;-52
2022/05/11 00:08:06;;;;;;;8.60;5.30;;;16.80;61.20;;;13.11;77.10;95746.06;5053986;28;20080;-49
2022/05/11 00:10:34;;;;;;;8.20;4.63;;;16.70;61.20;;;13.12;77.26;95747.63;5054565;28;20480;-52
2022/05/11 00:13:06;;;;;;;6.72;4.68;;;16.70;61.40;;;13.09;77.42;95750.88;5063606;28;20029;-49
2022/05/11 00:15:32;;;;;;;7.53;4.85;;;16.70;61.70;;;13.11;77.49;95750.59;5067380;28;20038;-53
2022/05/11 00:18:10;;;;;;;7.43;5.10;;;16.70;61.60;;;13.04;77.53;95734.88;5072042;28;20033;-50
2022/05/11 00:20:37;;;;;;;8.48;4.97;;;16.60;61.60;;;13.06;77.40;95742.59;5057688;28;20207;-54
2022/05/11 00:23:08;;;;;;;6.72;4.70;;;16.60;61.70;;;13.03;77.81;95745.81;5060217;28;20024;-50
2022/05/11 00:25:34;;;;;;;6.15;4.93;;;16.60;61.90;;;13.01;77.92;95748.00;5069878;28;20029;-54
2022/05/11 00:28:03;;;;;;;6.78;5.20;;;16.60;62.00;;;13.02;78.00;95736.22;5070785;28;20035;-54
2022/05/11 00:30:30;;;;;;;7.25;5.07;;;16.60;62.20;;;13.02;77.81;95731.66;5070755;28;20028;-56
2022/05/11 00:32:59;;;;;;;6.65;4.88;;;16.50;62.20;;;13.00;77.74;95728.44;5059374;28;20038;-53
2022/05/11 00:35:33;;;;;;;8.23;5.05;;;16.50;62.30;;;13.01;77.83;95729.28;5069464;28;20446;-52
2022/05/11 00:38:04;;;;;;;7.90;4.80;;;16.60;62.40;;;13.01;77.66;95734.63;5058019;28;20484;-53
2022/05/11 00:40:30;;;;;;;6.90;4.85;;;16.50;62.30;;;13.06;77.62;95731.91;5050709;28;20060;-52
2022/05/11 00:43:06;;;;;;;7.60;5.32;;;16.50;62.30;;;13.07;77.54;95728.97;5064206;28;20024;-54
2022/05/11 00:45:50;;;;;;;7.38;5.03;;;16.50;62.40;;;13.07;77.28;95725.50;5059164;28;20025;-51
2022/05/11 00:51:12;;;;;;;6.28;5.20;;;16.50;62.40;;;13.05;77.38;95727.63;5016880;28;20035;-50
2022/05/11 00:53:45;;;;;;;9.27;5.35;;;16.50;62.20;;;13.02;77.47;95722.84;5062206;28;20021;-51
2022/05/11 00:56:15;;;;;;;6.97;4.90;;;16.50;62.30;;;13.03;77.57;95727.91;5063802;28;20025;-54
2022/05/11 00:58:58;;;;;;;6.20;5.05;;;16.50;62.50;;;13.05;77.43;95731.09;5051749;28;20029;-49
2022/05/11 01:01:31;;;;;;;8.27;5.18;;;16.50;62.60;;;13.01;77.43;95723.94;5069514;28;20020;-52
2022/05/11 01:04:15;;;;;;;8.18;4.47;;;16.50;62.50;;;12.99;77.38;95718.84;5070567;28;20028;-54
2022/05/11 01:06:42;;;;;;;5.63;4.93;;;16.50;62.70;;;13.02;77.61;95720.97;5070507;28;20028;-52
2022/05/11 01:09:10;;;;;;;7.38;5.35;;;16.50;62.40;;;12.99;77.79;95724.19;5068198;28;20036;-51
2022/05/11 01:11:53;;;;;;;6.20;5.35;;;16.50;62.50;;;12.91;77.65;95727.44;5059893;28;20590;-52
2022/05/11 01:14:24;;;;;;;5.55;4.85;;;16.50;62.70;;;12.85;77.44;95721.34;5070477;28;20029;-51
2022/05/11 01:16:58;;;;;;;5.85;5.13;;;16.40;62.50;;;12.87;77.58;95719.16;5050803;28;20419;-54
2022/05/11 01:19:33;;;;;;;6.97;5.13;;;16.40;62.60;;;12.86;77.82;95722.91;5041320;28;20033;-52
2022/05/11 01:22:33;;;;;;;6.63;5.20;;;16.40;62.70;;;12.84;78.06;95716.25;5068757;28;20395;-55
2022/05/11 01:25:07;;;;;;;6.97;4.95;;;16.40;62.60;;;12.74;78.13;95720.56;5050558;28;20032;-53
2022/05/11 01:27:41;;;;;;;7.55;5.53;;;16.30;62.60;;;12.65;78.01;95719.53;5071647;28;20112;-53
2022/05/11 01:30:10;;;;;;;7.70;5.22;;;16.30;62.50;;;12.56;78.51;95715.03;5071523;28;20039;-52
2022/05/11 01:32:37;;;;;;;7.05;5.70;;;16.20;62.50;;;12.49;78.75;95716.13;5071544;28;20435;-49
2022/05/11 01:35:28;;;;;;;8.13;5.32;;;16.10;62.70;;;12.43;79.34;95711.88;5058385;28;20468;-50
2022/05/11 01:38:09;;;;;;;7.85;5.40;;;16.10;63.00;;;12.41;79.43;95716.72;5073742;28;20032;-53
2022/05/11 01:40:43;;;;;;;6.03;5.07;;;16.10;63.10;;;12.36;79.40;95714.03;5073819;28;20409;-51
2022/05/11 01:43:16;;;;;;;7.53;5.45;;;16.00;63.10;;;12.30;79.70;95712.44;5060371;28;20029;-52
2022/05/11 01:45:45;;;;;;;9.48;5.32;;;16.00;63.20;;;12.27;80.25;95718.34;5057065;28;20436;-52
2022/05/11 01:48:14;;;;;;;6.43;5.10;;;15.90;63.30;;;12.24;79.96;95713.53;5073484;28;20031;-51
2022/05/11 01:50:42;;;;;;;5.75;5.15;;;15.90;63.50;;;12.23;80.23;95715.41;5063916;28;20576;-50
2022/05/11 01:53:12;;;;;;;9.35;5.18;;;15.90;63.80;;;12.21;80.38;95712.19;5070604;28;20036;-53
2022/05/11 01:55:44;;;;;;;8.35;5.13;;;15.90;64.00;;;12.19;80.31;95710.88;5074732;28;20028;-52
2022/05/11 01:58:20;;;;;;;5.67;5.07;;;15.80;64.10;;;12.18;80.50;95711.94;5073392;28;20032;-53
2022/05/11 02:00:52;;;;;;;6.85;5.30;;;15.80;64.10;;;12.18;80.51;95718.09;5068548;28;20040;-52
2022/05/11 02:03:24;;;;;;;7.07;5.17;;;15.80;64.10;;;12.11;80.55;95711.44;5054210;28;20029;-50
2022/05/11 02:08:43;;;;;;;6.35;4.97;;;15.70;64.20;;;12.02;80.72;95709.31;5065755;28;20056;-54
2022/05/11 02:11:10;;;;;;;5.63;4.95;;;15.70;64.30;;;11.95;81.01;95706.13;5065110;28;20016;-55
2022/05/11 02:13:39;;;;;;;7.13;5.13;;;15.60;64.30;;;11.90;81.38;95708.78;5055603;28;20661;-52
2022/05/11 02:16:06;;;;;;;5.95;5.32;;;15.60;64.60;;;11.85;81.71;95716.03;5061908;28;20036;-53
2022/05/11 02:18:38;;;;;;;7.60;5.18;;;15.60;64.60;;;11.85;81.67;95714.16;5045960;28;20032;-54
2022/05/11 02:21:08;;;;;;;7.20;5.10;;;15.50;64.80;;;11.82;81.74;95710.13;5070833;28;20502;-51
2022/05/11 02:23:47;;;;;;;6.82;5.50;;;15.50;64.90;;;11.81;81.54;95719.22;5072143;28;20090;-54
2022/05/11 02:26:13;;;;;;;8.10;5.07;;;15.50;65.00;;;11.76;81.49;95713.06;5053961;28;20061;-52
2022/05/11 02:28:39;;;;;;;6.18;5.40;;;15.40;64.80;;;11.61;82.35;95710.41;5065929;28;20040;-56
2022/05/11 02:31:14;;;;;;;8.48;5.20;;;15.30;64.90;;;11.60;82.41;95722.16;5062040;28;20036;-54
2022/05/11 02:33:43;;;;;;;6.78;5.28;;;15.30;65.20;;;11.53;82.59;95719.72;5060489;28;20116;-56
2022/05/11 02:36:12;;;;;;;7.95;5.47;;;15.30;65.40;;;11.53;82.80;95722.41;5072528;28;20020;-52
2022/05/11 02:38:42;;;;;;;11.45;5.50;;;15.20;65.40;;;11.54;82.08;95714.16;5073728;28;20119;-56
2022/05/11 02:41:08;;;;;;;6.30;5.38;;;15.20;65.50;;;11.43;82.90;95714.41;5073786;28;20020;-51
2022/05/11 02:43:34;;;;;;;7.53;5.30;;;15.20;65.60;;;11.46;82.92;95720.00;5053388;28;20045;-52
2022/05/11 02:46:02;;;;;;;7.95;5.47;;;15.10;65.60;;;11.45;82.65;95718.41;5065796;28;20537;-51
2022/05/11 02:48:34;;;;;;;6.75;5.22;;;15.10;65.70;;;11.43;82.78;95717.06;5073589;28;20426;-53
2022/05/11 02:51:00;;;;;;;5.80;4.80;;;15.10;65.90;;;11.37;83.10;95710.94;5056341;28;20033;-54
2022/05/11 02:53:42;;;;;;;6.63;5.45;;;15.10;65.90;;;11.33;82.83;95715.19;5059050;28;20035;-52
2022/05/11 02:56:07;;;;;;;7.25;5.70;;;15.00;66.20;;;11.29;82.88;95708.81;5053466;28;20534;-54
2022/05/11 02:58:33;;;;;;;6.30;5.47;;;15.00;66.00;;;11.28;83.00;95720.53;5053363;28;20067;-54
2022/05/11 03:01:01;;;;;;;9.27;5.70;;;15.00;66.00;;;11.25;83.01;95716.53;5052001;28;20128;-53
2022/05/11 03:03:33;;;;;;;7.00;5.15;;;14.90;66.00;;;11.18;83.63;95710.66;5060941;28;20033;-56
2022/05/11 03:06:01;;;;;;;6.78;5.55;;;14.90;66.20;;;11.29;83.39;95719.47;5069099;28;20025;-52
2022/05/11 03:08:34;;;;;;;5.43;4.70;;;14.90;66.30;;;11.40;83.18;95713.06;5052802;28;20403;-52
2022/05/11 03:11:00;;;;;;;6.65;5.13;;;14.90;66.50;;;11.46;82.89;95720.00;5053218;28;20029;-56
2022/05/11 03:13:26;;;;;;;5.60;4.70;;;14.90;66.40;;;11.49;82.72;95711.47;5053080;28;20484;-55
2022/05/11 03:15:53;;;;;;;7.10;4.88;;;15.00;66.60;;;11.53;82.56;95714.41;5052767;28;20111;-56
2022/05/11 03:18:21;;;;;;;11.68;4.90;;;15.00;66.60;;;11.44;82.18;95692.00;5071506;28;20036;-54
2022/05/11 03:20:47;;;;;;;6.63;4.97;;;15.00;66.60;;;11.52;82.01;95704.81;5072727;28;20108;-53
2022/05/11 03:23:13;;;;;;;5.30;4.78;;;15.00;66.50;;;11.52;82.24;95718.13;5071733;28;20450;-52
2022/05/11 03:25:44;;;;;;;10.52;4.93;;;15.00;66.50;;;11.57;82.25;95720.81;5052878;28;20075;-52
2022/05/11 03:28:13;;;;;;;9.65;5.00;;;15.10;66.70;;;11.54;81.86;95716.81;5053091;28;20033;-55
2022/05/11 03:30:45;;;;;;;5.40;4.80;;;15.10;66.50;;;11.44;81.63;95713.31;5052872;28;20111;-54
2022/05/11 03:36:05;;;;;;;9.65;5.88;;;15.00;66.30;;;11.27;82.15;95711.72;5048556;28;20060;-59
2022/05/11 03:38:34;;;;;;;8.45;5.53;;;15.00;66.20;;;11.23;82.76;95713.31;5064737;28;20071;-56
2022/05/11 03:41:00;;;;;;;8.80;5.43;;;14.90;66.30;;;11.19;82.26;95711.44;5066360;28;20028;-55
2022/05/11 03:43:26;;;;;;;7.30;5.47;;;14.90;66.20;;;11.14;82.37;95712.25;5073095;28;20029;-54
2022/05/11 03:45:52;;;;;;;8.52;5.43;;;14.80;66.20;;;11.08;82.83;95708.75;5072320;28;20479;-52
2022/05/11 03:48:20;;;;;;;9.85;5.47;;;14.80;66.20;;;11.02;83.11;95714.34;5072443;28;20031;-50
2022/05/11 03:50:46;;;;;;;7.72;5.60;;;14.80;66.40;;;10.95;83.08;95719.16;5058755;28;20063;-54
2022/05/11 03:53:12;;;;;;;6.38;5.13;;;14.70;66.40;;;10.91;83.95;95721.53;5052501;28;20028;-51
2022/05/11 03:55:38;;;;;;;8.32;5.00;;;14.70;66.60;;;10.90;83.77;95717.25;5064664;28;20548;-53
2022/05/11 03:58:03;;;;;;;10.45;5.22;;;14.60;66.60;;;10.84;83.64;95711.13;5037281;28;20071;-54
2022/05/11 04:00:32;;;;;;;8.57;5.55;;;14.60;66.70;;;10.82;83.35;95717.78;5064370;28;20041;-53
2022/05/11 04:02:58;;;;;;;7.50;5.82;;;14.60;66.70;;;10.75;84.13;95712.69;5064109;28;20100;-52
2022/05/11 04:05:27;;;;;;;6.00;4.93;;;14.50;66.80;;;10.76;84.35;95719.63;5061598;28;20571;-52
2022/05/11 04:07:53;;;;;;;8.30;5.60;;;14.50;66.90;;;10.72;84.04;95710.56;5051893;28;20045;-52
2022/05/11 04:10:19;;;;;;;8.93;5.75;;;14.50;66.90;;;10.74;84.33;95719.06;5052149;28;20035;-53
2022/05/11 04:12:46;;;;;;;8.23;5.70;;;14.50;66.90;;;10.72;84.55;95715.06;5052192;28;20036;-56
2022/05/11 04:15:12;;;;;;;6.65;5.85;;;14.50;67.10;;;10.75;85.10;95723.38;5065803;28;20436;-55
2022/05/11 04:17:45;;;;;;;9.23;5.75;;;14.50;67.30;;;10.79;84.77;95726.31;5071000;28;20108;-52
2022/05/11 04:20:16;;;;;;;5.97;4.93;;;14.50;67.60;;;10.79;84.23;95716.44;5058312;28;20033;-53
2022/05/11 04:22:44;;;;;;;11.52;5.55;;;14.50;67.30;;;10.75;84.34;95712.69;5058876;28;20495;-53
2022/05/11 04:25:20;;;;;;;7.45;6.03;;;14.50;67.30;;;10.79;84.61;95724.44;5056988;28;20033;-51
2022/05/11 04:27:50;;;;;;;9.48;6.38;;;14.50;67.50;;;10.79;84.35;95726.31;5050770;28;20356;-53
2022/05/11 04:30:22;;;;;;;7.45;5.60;;;14.60;67.40;;;10.81;85.01;95729.47;5051935;28;20037;-53
2022/05/11 04:32:48;;;;;;;8.05;6.40;;;14.60;67.70;;;10.92;84.17;95733.00;5052286;28;20437;-55
2022/05/11 04:35:14;;;;;;;8.23;6.55;;;14.60;67.60;;;10.93;83.72;95731.91;5051955;28;20107;-53
2022/05/11 04:37:39;;;;;;;8.70;6.25;;;14.60;67.40;;;10.96;83.75;95740.19;5061301;28;20035;-55
2022/05/11 04:40:11;;;;;;;9.73;6.35;;;14.60;67.40;;;10.97;83.76;95733.81;5054308;28;20384;-53
2022/05/11 04:42:44;;;;;;;10.23;5.88;;;14.70;67.50;;;11.13;83.49;95729.31;5045516;28;20028;-53
2022/05/11 04:45:10;;;;;;;9.10;6.50;;;14.80;67.40;;;11.25;83.33;95737.03;5052852;28;20029;-53
2022/05/11 04:47:39;;;;;;;7.03;5.40;;;14.80;67.10;;;11.39;83.01;95734.69;5052111;28;20435;-53
2022/05/11 04:50:10;;;;;;;6.00;5.13;;;14.90;67.30;;;11.54;82.61;95740.81;5051082;28;20499;-53
2022/05/11 04:52:36;;;;;;;9.20;6.07;;;15.00;67.30;;;11.59;82.19;95737.34;5061936;28;20255;-54
2022/05/11 04:55:09;;;;;;;15.55;8.00;;;15.10;67.10;;;11.71;81.88;95750.44;5057483;28;20020;-55
2022/05/11 04:57:35;;;;;;;;;;;15.20;67.10;;;11.80;81.49;95746.94;5057706;28;20161;-56
2022/05/11 05:00:09;;;;;;;8.82;5.95;;;15.30;66.50;;;12.09;81.12;95750.94;5058222;28;20014;-53
2022/05/11 05:02:35;;;;;;;8.50;5.60;;;15.50;66.60;;;12.37;80.09;95744.22;5068620;28;20532;-56
2022/05/11 05:05:05;;;;;;;7.30;5.38;;;15.70;66.40;;;12.70;78.85;95748.13;5059107;28;20031;-53
2022/05/11 05:07:34;;;;;;;8.48;5.25;;;15.90;66.20;;;12.91;78.13;95741.63;5055456;28;20044;-54
2022/05/11 05:10:01;;;;;;;7.43;5.22;;;16.10;65.90;;;13.17;77.77;95749.50;5053417;28;20064;-52
2022/05/11 05:12:43;;;;;;;8.32;4.95;;;16.30;65.60;;;13.41;76.47;95750.44;5054286;28;20037;-53
2022/05/11 05:15:15;;;;;;;10.93;5.82;;;16.60;65.30;;;13.67;75.38;95746.78;5058731;28;20025;-55
2022/05/11 05:17:41;;;;;;;7.67;4.43;;;16.80;64.90;;;13.90;74.37;95756.75;5056184;28;20033;-53
2022/05/11 05:20:10;;;;;;;7.72;4.88;;;17.10;64.50;;;14.23;73.70;95757.00;5067491;28;20483;-51
2022/05/11 05:22:36;;;;;;;8.07;5.25;;;17.40;64.10;;;14.56;73.92;95755.34;5074288;28;20060;-55
2022/05/11 05:25:04;;;;;;;8.00;4.55;;;17.70;63.90;;;14.91;71.92;95762.16;5053557;28;20060;-54
2022/05/11 05:27:29;;;;;;;7.43;4.22;;;18.00;63.50;;;15.18;70.77;95768.81;5059876;28;20040;-55
2022/05/11 05:32:43;;;;;;;5.72;3.90;;;18.60;62.50;;;15.77;68.89;95763.97;5055783;28;20084;-56
2022/05/11 05:35:13;;;;;;;5.13;4.40;;;19.00;61.80;;;16.16;67.54;95768.94;5056595;28;20063;-51
2022/05/11 05:37:39;;;;;;;6.13;3.60;;;19.30;61.10;;;16.46;64.75;95762.25;5063656;28;20033;-52
2022/05/11 05:40:07;;;;;;;4.07;3.22;;;19.60;60.30;;;16.80;63.96;95772.66;5065778;28;20028;-54
2022/05/11 05:42:33;;;;;;;4.35;3.50;;;20.00;59.60;;;17.19;62.52;95767.81;5045061;28;20032;-57
2022/05/11 05:44:59;;;;;;;4.70;3.10;;;20.30;59.00;;;17.40;60.28;95770.88;5056252;28;20035;-57
2022/05/11 05:47:24;;;;;;;3.92;3.28;;;20.70;58.30;;;17.75;59.94;95774.66;5061535;28;20400;-54
2022/05/11 05:49:50;;;;;;;4.97;3.58;;;21.00;57.60;;;18.08;58.52;95783.31;5067731;28;20538;-56
2022/05/11 05:52:23;;;;;;;4.00;3.22;;;21.30;56.90;;;18.38;57.28;95778.25;5065510;28;20075;-54
2022/05/11 05:54:51;;;;;;;7.20;3.05;;;21.70;56.10;;;18.63;56.28;95785.69;5054812;28;20163;-54
2022/05/11 05:57:18;;;;;;;4.53;3.20;;;22.00;55.20;;;18.92;55.22;95779.78;5067538;28;20044;-57
2022/05/11 05:59:47;;;;;;;4.40;3.40;;;22.30;54.40;;;19.28;55.15;95772.59;5075312;28;20031;-52
2022/05/11 06:02:14;;;;;;;3.55;3.22;;;22.60;53.80;;;19.54;54.34;95784.19;5061001;28;20029;-56
2022/05/11 06:04:49;;;;;;;4.60;3.65;;;23.00;53.30;;;19.64;53.85;95781.22;5069521;28;20025;-54
2022/05/11 06:07:21;;;;;;;5.00;3.28;;;23.30;52.50;;;19.92;51.80;95785.50;5052693;28;20073;-55
2022/05/11 06:09:47;;;;;;;8.27;3.42;;;23.60;51.40;;;20.21;50.83;95782.13;5065119;28;20120;-57
2022/05/11 06:12:15;;;;;;;3.50;3.10;;;23.90;51.00;;;20.50;51.07;95779.53;5063174;28;20029;-55
2022/05/11 06:14:44;;;;;;;4.53;3.33;;;24.20;50.30;;;20.78;50.03;95782.66;4989960;28;20041;-56
2022/05/11 06:17:23;;;;;;;4.10;3.53;;;24.50;49.50;;;21.06;50.17;95782.22;5070649;28;20024;-52
2022/05/11 06:19:52;;;;;;;6.43;3.60;;;24.90;48.90;;;21.40;48.66;95775.00;5045926;28;20032;-54
2022/05/11 06:22:18;;;;;;;4.93;3.95;;;25.20;48.50;;;21.53;47.64;95782.13;5063610;28;20036;-55
2022/05/11 06:24:43;;;;;;;4.90;3.22;;;25.40;47.70;;;21.78;47.13;95779.50;5070101;28;20024;-55
2022/05/11 06:27:19;;;;;;;4.00;3.40;;;25.70;47.00;;;21.99;46.69;95776.78;5060743;28;20021;-56
2022/05/11 06:29:58;;;;;;;3.80;3.20;;;25.90;46.10;;;22.11;46.72;95784.97;5035205;28;20528;-56
2022/05/11 06:32:24;;;;;;;4.60;3.05;;;26.20;45.40;;;22.28;45.86;95781.31;5055569;28;20028;-58
2022/05/11 06:34:56;;;;;;;7.63;3.55;;;26.40;45.10;;;22.37;46.22;95780.09;5066849;28;20024;-56
2022/05/11 06:37:24;;;;;;;6.72;3.20;;;26.70;44.30;;;22.58;45.36;95777.34;5073403;28;20127;-57
2022/05/11 06:39:50;;;;;;;3.75;3.15;;;26.90;44.10;;;22.69;45.93;95776.91;5073472;28;20040;-57
2022/05/11 06:42:16;;;;;;;3.95;3.30;;;27.10;43.60;;;22.72;45.52;95771.63;5073740;28;20111;-56
2022/05/11 06:44:45;;;;;;;4.53;3.80;;;27.40;43.20;;;22.96;45.40;95773.56;5072751;28;20384;-57
2022/05/11 06:47:14;;;;;;;4.88;3.25;;;27.60;42.60;;;23.27;45.65;95774.91;5063563;28;20083;-54
2022/05/11 06:49:43;;;;;;;6.45;3.38;;;27.80;42.30;;;23.51;43.66;95771.38;5068394;28;20119;-56
2022/05/11 06:52:12;;;;;;;5.30;3.90;;;28.00;41.60;;;23.42;42.76;95759.84;5055813;28;20066;-58
2022/05/11 07:00:09;;;;;;;6.60;3.72;;;28.80;40.10;;;23.79;42.81;95771.47;5073208;28;20039;-58
2022/05/11 07:02:41;;;;;;;7.78;4.05;;;29.10;39.50;;;23.93;42.96;95779.22;5073301;28;20467;-55
2022/05/11 07:05:10;;;;;;;6.47;3.90;;;29.30;38.70;;;24.21;42.66;95768.34;5046077;28;20028;-54
2022/05/11 07:07:42;;;;;;;6.25;3.95;;;29.50;38.80;;;24.18;42.29;95769.81;5069748;28;20048;-56
2022/05/11 07:10:17;;;;;;;5.90;4.07;;;29.70;38.10;;;24.47;43.10;95770.59;5073173;28;20031;-58
2022/05/11 07:12:49;;;;;;;4.50;3.90;;;30.00;38.10;;;24.79;42.43;95762.47;5073117;28;20033;-57
2022/05/11 07:15:19;;;;;;;3.57;3.27;;;30.20;37.90;;;24.90;40.21;95766.25;5056104;28;20495;-54
2022/05/11 07:17:59;;;;;;;6.13;3.42;;;30.40;36.80;;;25.24;40.45;95763.97;5053125;28;20307;-58
2022/05/11 07:20:34;;;;;;;3.60;3.22;;;30.60;36.50;;;25.51;40.27;95764.94;5064590;28;20067;-57
2022/05/11 07:23:12;;;;;;;3.45;3.13;;;30.80;36.20;;;25.59;39.18;95753.84;5062333;28;20116;-54
2022/05/11 07:25:44;;;;;;;4.03;3.53;;;31.10;35.40;;;25.76;38.69;95758.09;5053871;28;20103;-56
2022/05/11 07:28:16;;;;;;;6.88;3.42;;;31.30;35.20;;;26.06;38.95;95763.00;5052554;28;20465;-59
2022/05/11 07:30:47;;;;;;;3.63;3.25;;;31.50;34.90;;;26.09;38.86;95751.38;5058882;28;20025;-58
2022/05/11 07:33:14;;;;;;;5.03;3.28;;;31.70;35.20;;;25.60;38.47;95760.88;5057353;28;20033;-58
2022/05/11 07:35:46;;;;;;;5.53;3.92;;;31.80;33.20;;;25.54;37.87;95756.84;5054944;28;20068;-57
2022/05/11 07:38:18;;;;;;;5.35;3.38;;;31.80;32.30;;;25.69;38.35;95757.94;5071359;28;20533;-57
2022/05/11 07:40:45;;;;;;;4.38;3.42;;;31.80;32.20;;;26.06;37.89;95763.78;5072650;28;20037;-57
2022/05/11 07:43:12;;;;;;;3.40;3.00;;;31.90;32.60;;;25.96;37.13;95758.91;5072584;28;20078;-57
2022/05/11 07:45:42;;;;;;;4.82;3.20;;;32.10;32.20;;;25.94;37.87;95755.75;5061630;28;20028;-56
2022/05/11 07:48:09;;;;;;;4.63;3.30;;;32.10;31.50;;;25.97;37.57;95760.50;5031925;28;20036;-59
2022/05/11 07:50:35;;;;;;;5.72;3.30;;;32.20;31.40;;;25.78;36.79;95755.78;5045279;28;20028;-58
2022/05/11 07:53:10;;;;;;;5.38;3.35;;;32.30;30.90;;;26.04;37.31;95749.72;5053937;28;20043;-56
2022/05/11 07:55:42;;;;;;;4.20;3.80;;;32.30;30.70;;;26.50;36.57;95749.03;5064390;28;20032;-55
2022/05/11 08:00:56;;;;;;;5.20;3.47;;;32.60;31.00;;;27.19;35.19;95749.81;5065050;28;20047;-56
2022/05/11 08:03:25;;;;;;;4.15;3.53;;;32.90;30.70;;;27.44;35.76;95749.38;5058290;28;20021;-54
2022/05/11 08:05:53;;;;;;;3.83;3.50;;;33.10;30.50;;;27.89;35.55;95751.19;5054258;28;20025;-56
2022/05/11 08:08:19;;;;;;;4.47;3.20;;;33.40;30.60;;;28.06;33.83;95752.56;5051141;28;20045;-57
2022/05/11 08:10:54;;;;;;;4.10;3.70;;;33.70;30.10;;;27.83;34.07;95754.66;5062168;28;20043;-58
2022/05/11 08:13:20;;;;;;;4.03;3.72;;;34.00;29.50;;;28.05;33.91;95752.97;5071109;28;20028;-58
2022/05/11 08:15:50;;;;;;;5.20;4.00;;;34.10;29.40;;;28.33;34.21;95749.72;5067809;28;20407;-58
2022/05/11 08:18:18;;;;;;;6.03;3.53;;;34.20;29.40;;;28.15;33.85;95749.53;5056056;28;20032;-57
2022/05/11 08:20:49;;;;;;;5.80;3.53;;;34.40;28.90;;;28.24;33.93;95752.78;5060924;28;20029;-58
2022/05/11 08:23:18;;;;;;;4.28;3.97;;;34.60;28.60;;;28.09;33.38;95751.03;5067509;28;20020;-58
2022/05/11 08:25:52;;;;;;;4.00;3.60;;;34.60;28.30;;;27.78;33.08;95739.31;5062237;28;20036;-58
2022/05/11 08:28:26;;;;;;;5.35;3.60;;;34.60;27.60;;;28.03;33.23;95739.63;5072003;28;20069;-57
2022/05/11 08:33:41;;;;;;;4.45;3.75;;;34.70;27.80;;;28.50;32.83;95740.94;5060307;28;20048;-57
2022/05/11 08:36:19;;;;;;;6.38;4.10;;;34.80;27.70;;;28.66;32.92;95745.38;5052922;28;20032;-57
2022/05/11 08:38:55;;;;;;;4.03;3.63;;;35.00;27.50;;;28.85;32.58;95747.91;5072234;28;20063;-58
2022/05/11 08:41:48;;;;;;;4.50;3.38;;;35.10;27.60;;;28.95;32.02;95740.94;5035804;28;20040;-59
2022/05/11 08:44:43;;;;;;;4.15;3.70;;;35.20;27.30;;;29.07;31.70;95742.63;5068127;28;20475;-57
2022/05/11 08:47:30;;;;;;;7.97;4.53;;;35.30;27.20;;;29.16;31.60;95746.59;5075988;28;20043;-57
2022/05/11 08:50:16;;;;;;;4.20;3.80;;;35.50;27.00;;;29.12;31.89;95737.59;5074277;28;20055;-58
2022/05/11 08:52:50;;;;;;;4.55;4.00;;;35.60;26.80;;;28.96;32.15;95739.78;5075888;28;20111;-57
2022/05/11 08:56:05;;;;;;;7.90;4.38;;;35.70;26.40;;;28.92;31.70;95737.00;5075735;28;20039;-59
2022/05/11 08:58:45;;;;;;;4.10;3.75;;;35.80;26.20;;;29.29;31.44;95734.16;5062320;28;20111;-59
2022/05/11 09:01:46;;;;;;;4.22;3.88;;;35.90;26.30;;;29.86;30.93;95735.66;5043648;28;20040;-57
2022/05/11 09:04:18;;;;;;;4.93;3.97;;;36.10;26.40;;;29.84;29.72;95732.53;5048568;28;20187;-56
2022/05/11 09:06:45;;;;;;;5.25;3.95;;;36.20;26.00;;;29.63;30.13;95720.28;5050495;28;20052;-59
2022/05/11 09:09:12;;;;;;;5.45;4.30;;;36.40;25.70;;;29.71;30.73;95723.84;5056079;28;20020;-59
2022/05/11 09:11:46;;;;;;;5.35;4.53;;;36.40;25.60;;;29.72;30.83;95726.19;5072668;28;20062;-59
2022/05/11 09:14:40;;;;;;;5.97;4.07;;;36.60;25.60;;;30.28;30.75;95732.31;5054302;28;20075;-57
2022/05/11 09:17:27;;;;;;;4.88;3.78;;;36.70;25.90;;;30.58;30.11;95720.19;5052979;28;20044;-55
2022/05/11 09:20:16;;;;;;;5.45;4.30;;;36.80;25.80;;;31.13;29.86;95713.56;5069666;28;20029;-59
2022/05/11 09:23:02;;;;;;;4.63;4.22;;;37.10;25.90;;;31.33;28.54;95725.69;5066228;28;20024;-56
2022/05/11 09:25:37;;;;;;;4.80;4.40;;;37.40;25.40;;;31.52;28.06;95716.25;5057018;28;20028;-59
2022/05/11 09:28:27;;;;;;;5.00;4.50;;;37.70;25.20;;;31.77;27.44;95724.44;5067893;28;20036;-56
2022/05/11 09:31:24;;;;;;;5.68;4.28;;;38.00;24.90;;;32.14;27.69;95718.41;5060494;28;20051;-56
2022/05/11 09:34:00;;;;;;;6.18;4.30;;;38.30;24.70;;;32.07;27.12;95709.41;5064972;28;20429;-58
2022/05/11 09:37:01;;;;;;;6.20;4.30;;;38.60;24.30;;;32.12;26.96;95714.47;5055490;28;20488;-58
2022/05/11 09:39:33;;;;;;;4.60;4.20;;;38.80;24.00;;;31.92;26.87;95711.44;5071165;28;20560;-57
2022/05/11 09:42:15;;;;;;;8.48;4.30;;;38.90;23.60;;;31.76;26.82;95714.63;5062866;28;20029;-58
2022/05/11 09:44:45;;;;;;;4.88;4.10;;;38.90;23.40;;;31.80;26.68;95712.63;5056472;28;20537;-56
2022/05/11 09:47:31;;;;;;;4.60;4.25;;;38.80;23.10;;;32.00;25.70;95713.75;5068510;28;20063;-58
2022/05/11 09:50:19;;;;;;;3.92;3.63;;;38.90;22.90;;;32.03;26.27;95710.22;5054449;28;20091;-57
2022/05/11 09:52:46;;;;;;;6.70;4.25;;;38.90;22.80;;;31.90;26.30;95711.81;5053515;28;20309;-58
2022/05/11 09:55:30;;;;;;;6.78;3.78;;;38.90;22.70;;;32.18;25.65;95704.59;5065068;28;20028;-57
2022/05/11 09:58:08;;;;;;;4.13;3.67;;;38.90;22.70;;;32.27;25.46;95704.94;5059404;28;20495;-57
2022/05/11 10:00:40;;;;;;;5.40;4.00;;;38.90;22.50;;;31.57;26.12;95700.13;5052754;28;20029;-57
2022/05/11 10:03:16;;;;;;;;;;;38.90;22.10;;;31.34;26.19;95694.31;5070340;28;20039;-59
2022/05/11 10:05:50;;;;;;;5.38;3.90;;;38.90;22.50;;;31.31;27.59;95684.84;5004157;28;20370;-56
2022/05/11 10:08:33;;;;;;;6.05;4.00;;;38.80;22.40;;;31.40;26.61;95691.91;5057059;28;20060;-57
2022/05/11 10:11:39;;;;;;;4.63;3.90;;;38.70;22.40;;;32.08;26.80;95689.72;5069958;28;20052;-59
2022/05/11 10:23:26;;;;;;;4.35;4.03;;;38.80;22.20;;;31.81;26.37;95681.16;5061979;28;20171;-57
2022/05/11 10:26:24;;;;;;;5.07;4.15;;;38.80;22.60;;;31.96;25.42;95679.94;5044582;28;20060;-58
2022/05/11 10:29:21;;;;;;;6.32;4.10;;;38.80;21.90;;;31.83;25.21;95678.00;5053057;28;20028;-57
2022/05/11 10:32:17;;;;;;;4.70;4.00;;;38.90;21.70;;;32.52;25.58;95679.25;5007432;28;20040;-53
2022/05/11 10:34:58;;;;;;;4.28;3.90;;;39.10;22.00;;;32.63;24.52;95677.97;5065916;28;20043;-58
2022/05/11 10:37:46;;;;;;;5.28;4.20;;;39.30;21.80;;;33.08;25.38;95674.47;5072545;28;20485;-56
2022/05/11 10:40:40;;;;;;;6.75;4.13;;;39.50;21.90;;;33.13;24.10;95668.50;5052882;28;20041;-55
2022/05/11 10:43:52;;;;;;;4.13;3.72;;;39.80;21.80;;;33.22;23.20;95668.00;5082724;28;20029;-58
2022/05/11 10:46:38;;;;;;;4.20;3.80;;;40.00;21.20;;;33.02;23.61;95662.31;5053731;28;20394;-57
2022/05/11 10:49:43;;;;;;;4.93;4.00;;;40.20;21.10;;;33.11;23.99;95660.63;5070576;28;20051;-58
2022/05/11 10:52:36;;;;;;;6.03;4.10;;;40.20;21.00;;;32.75;23.83;95649.13;5073623;28;20182;-57
2022/05/11 10:55:17;;;;;;;4.55;4.10;;;40.20;20.70;;;32.36;23.24;95643.88;5072214;28;20165;-57
2022/05/11 10:58:27;;;;;;;4.32;3.90;;;40.10;20.20;;;32.16;24.31;95627.88;5072165;28;20064;-59
2022/05/11 11:01:12;;;;;;;4.20;3.80;;;40.00;20.10;;;31.60;24.67;95626.19;5073376;28;20452;-58
2022/05/11 11:03:58;;;;;;;6.05;4.25;;;39.80;19.70;;;31.62;24.62;95632.06;5055562;28;20035;-57
2022/05/11 11:07:14;;;;;;;6.00;4.10;;;39.60;19.90;;;32.15;24.35;95626.28;5073057;28;20108;-58
2022/05/11 11:09:40;;;;;;;5.68;4.18;;;39.40;20.60;;;32.48;25.10;95629.66;5042660;28;20052;-57
2022/05/11 11:12:37;;;;;;;4.63;4.20;;;39.60;20.90;;;32.18;24.72;95625.50;5073137;28;20442;-58
2022/05/11 11:15:16;;;;;;;4.65;3.88;;;39.60;20.50;;;32.57;24.78;95624.47;5073221;28;20487;-58
2022/05/11 11:17:46;;;;;;;6.40;4.28;;;39.70;20.60;;;32.94;24.51;95618.22;5071808;28;20048;-57